Time;durP1;ratioP1;P1;durP2;ratioP2;P2;SDS_P1;SDS_P2;PMS_P1;PMS_P2;Temp;Humidity;BMP_temperature;BMP_pressure;BME280_temperature;BME280_humidity;BME280_pressure;Samples;Min_cycle;Max_cycle;Signal;HPM_P1;HPM_P2
2021/10/17 00:01:07;;;;;;;0.80;0.70;;;;;;;3.78;100.00;-20785.03;4975421;28;20536;-72
2021/10/17 00:03:34;;;;;;;0.70;0.70;;;;;;;3.75;100.00;-20784.06;4975154;28;20192;-72
2021/10/17 00:06:02;;;;;;;0.75;0.75;;;;;;;3.86;100.00;-20787.25;4973621;28;20208;-72
2021/10/17 00:08:29;;;;;;;0.70;0.70;;;;;;;3.83;100.00;-20786.28;4975604;28;20209;-72
2021/10/17 00:10:57;;;;;;;0.80;0.70;;;;;;;3.88;100.00;-20787.81;4974161;28;20205;-72
2021/10/17 00:13:24;;;;;;;0.70;0.70;;;;;;;3.93;100.00;-20788.94;4974789;28;20332;-72
2021/10/17 00:15:51;;;;;;;0.70;0.70;;;;;;;3.93;100.00;-20788.94;4976342;28;20236;-72
2021/10/17 00:18:20;;;;;;;3.58;1.58;;;;;;;3.97;100.00;-20790.06;4976651;28;20195;-72
2021/10/17 00:20:48;;;;;;;0.70;0.60;;;;;;;3.93;100.00;-20788.94;4975173;28;20219;-72
2021/10/17 00:23:15;;;;;;;0.70;0.60;;;;;;;3.95;100.00;-20789.50;4974887;28;20303;-72
2021/10/17 00:25:42;;;;;;;0.70;0.60;;;;;;;3.93;100.00;-20789.06;4976404;28;20629;-72
2021/10/17 00:28:09;;;;;;;0.70;0.70;;;;;;;3.86;100.00;-20787.13;4977798;28;20204;-72
2021/10/17 00:30:41;;;;;;;0.80;0.70;;;;;;;3.89;100.00;-20787.97;4976686;28;20657;-72
2021/10/17 00:33:13;;;;;;;0.70;0.60;;;;;;;3.91;100.00;-20788.38;4974918;28;20243;-72
2021/10/17 00:35:46;;;;;;;0.70;0.68;;;;;;;3.95;100.00;-20789.63;4972332;28;20216;-72
2021/10/17 00:38:23;;;;;;;0.70;0.60;;;;;;;4.04;100.00;-20792.00;4974505;28;20212;-72
2021/10/17 00:40:54;;;;;;;0.70;0.70;;;;;;;4.19;100.00;-20796.19;4974764;28;20201;-73
2021/10/17 00:43:24;;;;;;;0.70;0.60;;;;;;;4.27;100.00;-20798.28;4974067;28;20205;-73
2021/10/17 00:45:58;;;;;;;1.08;1.00;;;;;;;4.50;100.00;-20804.69;4975419;28;20181;-72
2021/10/17 00:48:29;;;;;;;0.70;0.70;;;;;;;4.54;100.00;-20805.66;4974338;28;20254;-72
2021/10/17 00:51:02;;;;;;;0.75;0.70;;;;;;;4.78;100.00;-20812.34;4974550;28;20704;-72
2021/10/17 00:53:33;;;;;;;0.70;0.70;;;;;;;4.79;100.00;-20812.50;4974711;28;20244;-72
2021/10/17 00:56:09;;;;;;;0.70;0.60;;;;;;;4.77;100.00;-20811.94;4971260;28;20213;-72
2021/10/17 00:58:42;;;;;;;0.70;0.60;;;;;;;4.60;100.00;-20807.34;4955456;28;20620;-72
2021/10/17 01:01:14;;;;;;;2.67;1.30;;;;;;;4.50;100.00;-20804.53;4955186;29;20224;-72
2021/10/17 01:03:52;;;;;;;0.77;0.75;;;;;;;4.48;100.00;-20804.13;4961487;28;20204;-72
2021/10/17 01:06:27;;;;;;;0.70;0.63;;;;;;;4.42;100.00;-20802.31;4973426;28;20207;-72
2021/10/17 01:09:02;;;;;;;0.70;0.60;;;;;;;4.38;100.00;-20801.19;4995372;28;20210;-73
2021/10/17 01:11:43;;;;;;;0.70;0.60;;;;;;;4.29;100.00;-20798.84;4976786;28;20607;-72
2021/10/17 01:14:23;;;;;;;0.68;0.60;;;;;;;4.19;100.00;-20796.19;4972407;28;20267;-72
2021/10/17 01:16:56;;;;;;;0.70;0.60;;;;;;;4.18;100.00;-20795.91;4974060;28;20271;-72
2021/10/17 01:19:36;;;;;;;1.15;1.05;;;;;;;4.20;100.00;-20796.47;4970202;28;20228;-72
2021/10/17 01:22:18;;;;;;;0.70;0.70;;;;;;;4.18;100.00;-20795.91;4971112;28;20200;-72
2021/10/17 01:24:51;;;;;;;0.70;0.60;;;;;;;4.11;100.00;-20794.09;4966103;28;20653;-72
2021/10/17 01:27:26;;;;;;;1.67;1.55;;;;;;;4.04;100.00;-20792.16;4970748;28;20250;-72
2021/10/17 01:30:01;;;;;;;0.70;0.60;;;;;;;3.99;100.00;-20790.63;4973508;28;20192;-73
2021/10/17 01:32:31;;;;;;;0.70;0.60;;;;;;;3.97;100.00;-20790.06;4973916;28;20192;-72
2021/10/17 01:35:06;;;;;;;0.70;0.60;;;;;;;3.92;100.00;-20788.66;4973208;28;20692;-72
2021/10/17 01:37:39;;;;;;;0.70;0.60;;;;;;;3.88;100.00;-20787.81;4974166;28;20215;-72
2021/10/17 01:40:07;;;;;;;0.70;0.60;;;;;;;3.84;100.00;-20786.56;4973584;28;20210;-72
2021/10/17 01:42:34;;;;;;;0.70;0.60;;;;;;;3.81;100.00;-20785.88;4973915;28;20184;-72
2021/10/17 01:45:01;;;;;;;0.70;0.60;;;;;;;4.01;100.00;-20791.31;4973491;28;20224;-73
2021/10/17 01:47:31;;;;;;;1.45;1.35;;;;;;;4.11;100.00;-20794.09;4973699;28;20600;-72
2021/10/17 01:49:58;;;;;;;0.70;0.60;;;;;;;4.04;100.00;-20792.00;4973248;28;20644;-72
2021/10/17 01:52:26;;;;;;;0.70;0.60;;;;;;;4.11;100.00;-20794.09;4973093;28;20220;-72
2021/10/17 01:54:55;;;;;;;0.70;0.60;;;;;;;4.08;100.00;-20793.13;4973281;28;20215;-72
2021/10/17 01:57:26;;;;;;;0.70;0.70;;;;;;;3.99;100.00;-20790.63;4972704;28;20259;-73
2021/10/17 01:59:53;;;;;;;0.70;0.60;;;;;;;3.96;100.00;-20789.91;4973161;28;20192;-72
2021/10/17 02:02:39;;;;;;;0.70;0.60;;;;;;;3.95;100.00;-20789.50;4974199;28;20196;-72
2021/10/17 02:05:12;;;;;;;0.70;0.60;;;;;;;3.91;100.00;-20788.38;4971858;28;20220;-73
2021/10/17 02:07:43;;;;;;;0.70;0.60;;;;;;;3.87;100.00;-20787.53;4973277;28;20228;-73
2021/10/17 02:10:12;;;;;;;0.70;0.60;;;;;;;3.81;100.00;-20785.72;4973310;28;20200;-72
2021/10/17 02:12:40;;;;;;;0.70;0.60;;;;;;;3.83;100.00;-20786.28;4973208;28;20283;-73
2021/10/17 02:15:08;;;;;;;0.70;0.60;;;;;;;3.84;100.00;-20786.72;4972661;28;20223;-73
2021/10/17 02:17:35;;;;;;;0.70;0.60;;;;;;;3.84;100.00;-20786.72;4972849;28;20195;-73
2021/10/17 02:20:03;;;;;;;1.33;1.23;;;;;;;3.80;100.00;-20785.59;4973355;28;20207;-73
2021/10/17 02:22:31;;;;;;;0.70;0.60;;;;;;;3.75;100.00;-20784.19;4972684;28;20242;-72
2021/10/17 02:25:00;;;;;;;0.70;0.60;;;;;;;3.71;100.00;-20783.09;4973211;28;20203;-72
2021/10/17 02:27:28;;;;;;;0.70;0.60;;;;;;;3.67;100.00;-20781.81;4960010;28;20204;-73
2021/10/17 02:29:56;;;;;;;0.70;0.60;;;;;;;3.61;100.00;-20780.28;4975142;28;20201;-72
2021/10/17 02:32:34;;;;;;;0.70;0.70;;;;;;;3.64;100.00;-20781.13;4978428;28;20196;-73
2021/10/17 02:35:09;;;;;;;0.70;0.60;;;;;;;3.61;100.00;-20780.28;4964634;28;20215;-73
2021/10/17 02:37:36;;;;;;;0.70;0.60;;;;;;;3.59;100.00;-20779.75;5009300;28;20208;-73
2021/10/17 02:40:05;;;;;;;0.70;0.60;;;;;;;3.55;100.00;-20778.63;4975669;28;20552;-72
2021/10/17 02:42:34;;;;;;;0.70;0.60;;;;;;;3.52;100.00;-20777.78;4963262;28;20204;-72
2021/10/17 02:45:01;;;;;;;0.70;0.60;;;;;;;3.51;100.00;-20777.50;4979544;28;20196;-72
2021/10/17 02:47:28;;;;;;;0.70;0.63;;;;;;;3.46;100.00;-20776.09;4979243;28;20199;-73
2021/10/17 02:49:56;;;;;;;0.70;0.60;;;;;;;3.39;100.00;-20774.31;4962780;28;20287;-73
2021/10/17 02:52:29;;;;;;;0.70;0.60;;;;;;;3.38;100.00;-20774.03;4978774;28;20236;-73
2021/10/17 02:54:56;;;;;;;0.70;0.70;;;;;;;3.33;100.00;-20772.75;4979322;28;20212;-72
2021/10/17 02:57:23;;;;;;;0.70;0.60;;;;;;;3.35;100.00;-20773.31;4979250;28;20228;-72
2021/10/17 02:59:52;;;;;;;0.70;0.60;;;;;;;3.31;100.00;-20772.06;4977741;28;20200;-72
2021/10/17 03:02:20;;;;;;;0.70;0.70;;;;;;;3.28;100.00;-20771.38;4976124;28;20252;-72
2021/10/17 03:04:49;;;;;;;0.70;0.70;;;;;;;3.26;100.00;-20770.66;4959764;28;20209;-72
2021/10/17 03:07:17;;;;;;;0.70;0.60;;;;;;;3.25;100.00;-20770.53;4974958;28;20204;-71
2021/10/17 03:09:59;;;;;;;0.70;0.60;;;;;;;3.18;100.00;-20768.59;4978547;28;20560;-73
2021/10/17 03:12:27;;;;;;;0.70;0.70;;;;;;;3.18;100.00;-20768.59;4963467;28;20613;-73
2021/10/17 03:14:59;;;;;;;0.90;0.80;;;;;;;3.19;100.00;-20768.72;4979065;28;20239;-73
2021/10/17 03:17:27;;;;;;;0.70;0.63;;;;;;;3.22;100.00;-20769.69;4979148;28;20196;-73
2021/10/17 03:19:54;;;;;;;0.80;0.80;;;;;;;3.26;100.00;-20770.66;4979002;28;20199;-73
2021/10/17 03:22:26;;;;;;;0.70;0.60;;;;;;;3.31;100.00;-20772.19;4978576;28;20633;-73
2021/10/17 03:24:55;;;;;;;0.70;0.60;;;;;;;3.29;100.00;-20771.66;4979045;28;20231;-72
2021/10/17 03:27:23;;;;;;;0.70;0.60;;;;;;;3.28;100.00;-20771.38;4978064;28;20200;-71
2021/10/17 03:29:54;;;;;;;0.70;0.60;;;;;;;3.25;100.00;-20770.53;4978047;28;20202;-72
2021/10/17 03:32:23;;;;;;;0.70;0.60;;;;;;;3.19;100.00;-20768.84;4980367;28;20267;-72
2021/10/17 03:34:50;;;;;;;0.70;0.60;;;;;;;3.15;100.00;-20767.75;4962592;28;20263;-72
2021/10/17 03:37:18;;;;;;;0.70;0.60;;;;;;;3.13;100.00;-20767.31;4978216;28;20645;-72
2021/10/17 03:39:45;;;;;;;0.70;0.60;;;;;;;3.14;100.00;-20767.47;4975037;28;20212;-72
2021/10/17 03:42:15;;;;;;;0.70;0.60;;;;;;;3.15;100.00;-20767.75;4975962;28;20200;-72
2021/10/17 03:44:43;;;;;;;0.70;0.60;;;;;;;3.18;100.00;-20768.44;4975618;28;20636;-72
2021/10/17 03:47:11;;;;;;;0.70;0.63;;;;;;;3.17;100.00;-20768.31;4974980;28;20197;-72
2021/10/17 03:49:40;;;;;;;0.70;0.70;;;;;;;3.14;100.00;-20767.47;4975442;28;20196;-72
2021/10/17 03:52:07;;;;;;;0.70;0.60;;;;;;;3.10;100.00;-20766.50;4975720;28;20200;-72
2021/10/17 03:54:34;;;;;;;0.70;0.60;;;;;;;3.18;100.00;-20768.59;4947064;29;20662;-72
2021/10/17 03:57:02;;;;;;;0.70;0.60;;;;;;;3.24;100.00;-20770.13;4956164;28;20243;-72
2021/10/17 03:59:29;;;;;;;0.70;0.60;;;;;;;3.39;100.00;-20774.44;4968342;28;20204;-72
2021/10/17 04:01:56;;;;;;;0.70;0.70;;;;;;;3.26;100.00;-20770.66;4971220;28;20196;-72
2021/10/17 04:04:24;;;;;;;0.70;0.60;;;;;;;3.19;100.00;-20768.72;4971183;28;20220;-71
2021/10/17 04:06:53;;;;;;;0.70;0.60;;;;;;;3.13;100.00;-20767.19;4957339;28;20268;-71
2021/10/17 04:09:26;;;;;;;0.70;0.63;;;;;;;3.09;100.00;-20766.06;4971267;28;20727;-71
2021/10/17 04:11:54;;;;;;;0.70;0.60;;;;;;;3.10;100.00;-20766.34;4988410;28;20204;-72
2021/10/17 04:14:22;;;;;;;0.70;0.60;;;;;;;3.10;100.00;-20766.34;4987943;28;20201;-72
2021/10/17 04:16:50;;;;;;;0.70;0.70;;;;;;;3.17;100.00;-20768.31;4993300;28;20212;-72
2021/10/17 04:19:16;;;;;;;0.70;0.60;;;;;;;3.29;100.00;-20771.50;4976215;28;20211;-72
2021/10/17 04:21:44;;;;;;;0.70;0.70;;;;;;;3.25;100.00;-20770.41;4976434;28;20196;-72
2021/10/17 04:24:14;;;;;;;0.80;0.60;;;;;;;3.17;100.00;-20768.16;4973357;28;20612;-72
2021/10/17 04:26:41;;;;;;;0.70;0.65;;;;;;;3.09;100.00;-20766.06;4970009;28;20209;-72
2021/10/17 04:29:11;;;;;;;0.70;0.60;;;;;;;3.15;100.00;-20767.75;4968428;28;20208;-72
2021/10/17 04:31:38;;;;;;;0.70;0.60;;;;;;;3.10;100.00;-20766.34;4974458;28;20665;-73
2021/10/17 04:34:05;;;;;;;0.70;0.65;;;;;;;3.12;100.00;-20766.91;4974729;28;20216;-71
2021/10/17 04:36:32;;;;;;;0.70;0.60;;;;;;;3.07;100.00;-20765.50;4973708;28;20295;-72
2021/10/17 04:39:00;;;;;;;0.70;0.60;;;;;;;3.01;100.00;-20763.97;4971444;28;20223;-72
2021/10/17 04:41:28;;;;;;;0.98;0.98;;;;;;;2.94;100.00;-20761.88;4987600;28;20189;-72
2021/10/17 04:43:55;;;;;;;0.70;0.60;;;;;;;2.85;100.00;-20759.50;4977005;28;20192;-72
2021/10/17 04:46:22;;;;;;;0.70;0.60;;;;;;;2.80;100.00;-20758.25;4974393;28;20727;-72
2021/10/17 04:48:49;;;;;;;0.70;0.60;;;;;;;2.80;100.00;-20758.25;4974739;28;20731;-72
2021/10/17 04:51:16;;;;;;;0.70;0.70;;;;;;;2.78;100.00;-20757.56;4974467;28;20200;-72
2021/10/17 04:53:43;;;;;;;0.70;0.70;;;;;;;2.71;100.00;-20755.75;4956689;28;20219;-72
2021/10/17 04:56:10;;;;;;;0.70;0.60;;;;;;;2.74;100.00;-20756.44;4974369;28;20230;-72
2021/10/17 04:58:40;;;;;;;0.70;0.70;;;;;;;2.67;100.00;-20754.63;4973368;28;20200;-72
2021/10/17 05:01:08;;;;;;;0.70;0.70;;;;;;;2.67;100.00;-20754.75;4974211;28;20200;-72
2021/10/17 05:03:36;;;;;;;0.70;0.60;;;;;;;2.74;100.00;-20756.59;4974305;28;20196;-71
2021/10/17 05:06:06;;;;;;;0.70;0.60;;;;;;;2.78;100.00;-20757.69;4974347;28;20200;-71
2021/10/17 05:08:34;;;;;;;0.70;0.65;;;;;;;2.91;100.00;-20761.19;4973858;28;20222;-71
2021/10/17 05:11:01;;;;;;;0.70;0.60;;;;;;;3.01;100.00;-20763.84;4974000;28;20188;-71
2021/10/17 05:13:28;;;;;;;0.70;0.60;;;;;;;3.03;100.00;-20764.41;4990047;28;20239;-72
2021/10/17 05:15:57;;;;;;;0.70;0.60;;;;;;;3.03;100.00;-20764.41;4973724;28;20569;-72
2021/10/17 05:18:23;;;;;;;0.70;0.70;;;;;;;3.00;100.00;-20763.69;4973866;28;20193;-72
2021/10/17 05:20:56;;;;;;;0.70;0.60;;;;;;;2.93;100.00;-20761.59;4973965;28;20560;-72
2021/10/17 05:23:23;;;;;;;0.70;0.70;;;;;;;2.84;100.00;-20759.38;4973940;28;20739;-71
2021/10/17 05:25:51;;;;;;;0.70;0.60;;;;;;;2.78;100.00;-20757.69;4973948;28;20551;-73
2021/10/17 05:28:19;;;;;;;0.70;0.60;;;;;;;2.70;100.00;-20755.47;4972740;28;20784;-72
2021/10/17 05:30:47;;;;;;;0.70;0.60;;;;;;;2.74;100.00;-20756.59;4954671;28;20201;-72
2021/10/17 05:33:16;;;;;;;0.70;0.60;;;;;;;2.67;100.00;-20754.63;4954746;28;20205;-71
2021/10/17 05:35:43;;;;;;;0.70;0.68;;;;;;;2.62;100.00;-20753.22;4955178;28;20475;-72
2021/10/17 05:38:11;;;;;;;0.70;0.60;;;;;;;2.70;100.00;-20755.47;4970580;28;20213;-72
2021/10/17 05:40:39;;;;;;;0.70;0.60;;;;;;;2.69;100.00;-20755.19;4954611;28;20197;-72
2021/10/17 05:43:06;;;;;;;0.70;0.60;;;;;;;2.78;100.00;-20757.56;4945658;28;20669;-72
2021/10/17 05:45:34;;;;;;;0.70;0.60;;;;;;;2.71;100.00;-20755.75;4973353;28;20210;-72
2021/10/17 05:48:01;;;;;;;0.70;0.68;;;;;;;2.70;100.00;-20755.47;4973248;28;20188;-73
2021/10/17 05:50:32;;;;;;;0.70;0.70;;;;;;;2.73;100.00;-20756.31;4973309;28;20220;-72
2021/10/17 05:53:01;;;;;;;0.70;0.60;;;;;;;2.71;100.00;-20755.59;4973464;28;20216;-72
2021/10/17 05:55:28;;;;;;;0.70;0.60;;;;;;;2.67;100.00;-20754.63;4956240;28;20204;-72
2021/10/17 05:57:55;;;;;;;0.70;0.60;;;;;;;2.62;100.00;-20753.38;4971507;28;20255;-72
2021/10/17 06:00:23;;;;;;;0.70;0.60;;;;;;;2.58;100.00;-20752.13;4973733;28;20235;-72
2021/10/17 06:02:56;;;;;;;0.70;0.70;;;;;;;2.54;100.00;-20751.00;4972372;28;20196;-72
2021/10/17 06:05:27;;;;;;;0.70;0.60;;;;;;;2.53;100.00;-20750.72;4957493;28;20204;-72
2021/10/17 06:07:55;;;;;;;0.70;0.60;;;;;;;2.58;100.00;-20752.13;4972571;28;20224;-72
2021/10/17 06:10:27;;;;;;;1.27;1.17;;;;;;;2.65;100.00;-20754.22;4972977;28;20230;-72
2021/10/17 06:12:54;;;;;;;0.70;0.60;;;;;;;2.76;100.00;-20757.13;4972929;28;20738;-72
2021/10/17 06:15:20;;;;;;;0.70;0.70;;;;;;;2.73;100.00;-20756.31;4973237;28;20196;-72
2021/10/17 06:17:47;;;;;;;0.70;0.60;;;;;;;2.76;100.00;-20757.13;4974385;28;20228;-71
2021/10/17 06:20:16;;;;;;;0.70;0.70;;;;;;;2.85;100.00;-20759.66;4969280;28;20658;-71
2021/10/17 06:22:47;;;;;;;0.70;0.65;;;;;;;2.86;100.00;-20759.94;4981608;28;20319;-72
2021/10/17 06:25:15;;;;;;;0.70;0.60;;;;;;;2.88;100.00;-20760.50;4953820;28;20205;-72
2021/10/17 06:27:42;;;;;;;0.70;0.60;;;;;;;3.00;100.00;-20763.69;4953747;29;20252;-72
2021/10/17 06:30:12;;;;;;;0.70;0.60;;;;;;;3.12;100.00;-20766.91;4969699;28;20191;-72
2021/10/17 06:32:39;;;;;;;0.70;0.60;;;;;;;3.25;100.00;-20770.41;4953925;29;20251;-72
2021/10/17 06:35:08;;;;;;;0.80;0.80;;;;;;;3.36;100.00;-20773.47;4954887;28;20205;-72
2021/10/17 06:37:38;;;;;;;0.70;0.60;;;;;;;3.52;100.00;-20777.78;4954419;28;20221;-72
2021/10/17 06:40:06;;;;;;;0.70;0.60;;;;;;;3.65;100.00;-20781.41;4953294;29;20201;-74
2021/10/17 06:42:35;;;;;;;0.70;0.60;;;;;;;3.85;100.00;-20787.00;4970080;28;20205;-73
2021/10/17 06:45:20;;;;;;;0.70;0.68;;;;;;;4.06;100.00;-20792.56;4971062;28;20210;-72
2021/10/17 06:47:47;;;;;;;0.70;0.60;;;;;;;4.16;100.00;-20795.22;4972787;28;20211;-72
2021/10/17 06:50:17;;;;;;;0.70;0.60;;;;;;;4.22;100.00;-20797.03;4968151;28;20197;-72
2021/10/17 06:52:44;;;;;;;0.70;0.63;;;;;;;4.26;100.00;-20798.13;4997417;28;20251;-72
2021/10/17 06:55:12;;;;;;;0.70;0.60;;;;;;;4.34;100.00;-20800.22;4972067;28;20200;-72
2021/10/17 06:57:41;;;;;;;0.70;0.60;;;;;;;4.36;100.00;-20800.94;4972784;28;20307;-72
2021/10/17 07:00:09;;;;;;;0.70;0.60;;;;;;;4.34;100.00;-20800.38;4972980;28;20200;-71
2021/10/17 07:02:40;;;;;;;0.70;0.60;;;;;;;4.51;100.00;-20804.97;4973636;28;20645;-72
2021/10/17 07:05:12;;;;;;;0.70;0.60;;;;;;;4.58;100.00;-20806.91;4972652;28;20204;-72
2021/10/17 07:07:39;;;;;;;0.70;0.70;;;;;;;4.66;100.00;-20808.88;4952754;28;20749;-73
2021/10/17 07:10:07;;;;;;;0.70;0.70;;;;;;;4.91;100.00;-20815.81;4953537;28;20216;-72
2021/10/17 07:12:53;;;;;;;0.70;0.60;;;;;;;5.25;100.00;-20825.00;4954137;28;20188;-72
2021/10/17 07:15:24;;;;;;;0.70;0.60;;;;;;;5.52;100.00;-20832.38;4956655;28;20725;-72
2021/10/17 07:17:55;;;;;;;0.70;0.60;;;;;;;5.65;100.00;-20836.00;4942155;28;20243;-72
2021/10/17 07:20:31;;;;;;;0.70;0.70;;;;;;;5.78;100.00;-20839.63;4975997;28;20274;-72
2021/10/17 07:22:58;;;;;;;0.70;0.60;;;;;;;5.97;100.00;-20844.63;4976159;28;20308;-73
2021/10/17 07:25:30;;;;;;;0.60;0.60;;;;;;;6.02;100.00;-20846.03;4975818;28;20200;-72
2021/10/17 07:27:59;;;;;;;0.70;0.60;;;;;;;6.17;100.00;-20850.06;4992301;28;20199;-72
2021/10/17 07:30:28;;;;;;;0.70;0.60;;;;;;;6.26;100.00;-20852.72;4976100;28;20544;-72
2021/10/17 07:32:56;;;;;;;0.70;0.60;;;;;;;6.43;100.00;-20857.28;4973844;28;20536;-72
2021/10/17 07:35:23;;;;;;;0.60;0.60;;;;;;;6.51;100.00;-20859.38;4975745;28;20283;-73
2021/10/17 07:37:50;;;;;;;0.60;0.60;;;;;;;6.52;100.00;-20859.66;4975898;28;20482;-72
2021/10/17 07:40:19;;;;;;;0.87;0.87;;;;;;;6.55;100.00;-20860.47;4975607;28;20475;-73
2021/10/17 07:42:48;;;;;;;0.60;0.60;;;;;;;6.62;100.00;-20862.44;4974694;28;20447;-72
2021/10/17 07:45:25;;;;;;;0.70;0.70;;;;;;;6.72;100.00;-20865.22;4975432;28;20431;-72
2021/10/17 07:47:57;;;;;;;1.47;1.37;;;;;;;6.76;100.00;-20866.31;4956987;28;20882;-72
2021/10/17 07:50:24;;;;;;;0.60;0.60;;;;;;;6.87;100.00;-20869.09;4987936;28;20495;-72
2021/10/17 07:52:52;;;;;;;0.63;0.57;;;;;;;6.87;100.00;-20869.25;4999015;28;20474;-72
2021/10/17 07:55:26;;;;;;;0.70;0.70;;;;;;;6.78;100.00;-20866.88;4989121;28;20495;-74
2021/10/17 07:57:58;;;;;;;0.60;0.60;;;;;;;6.83;100.00;-20868.00;4988504;28;20472;-72
2021/10/17 08:00:34;;;;;;;0.70;0.70;;;;;;;6.87;100.00;-20869.09;4988636;28;20925;-72
2021/10/17 08:03:24;;;;;;;0.70;0.60;;;;;;;6.99;100.00;-20872.56;4976636;28;20451;-72
2021/10/17 08:06:14;;;;;;;0.70;0.60;;;;;;;7.03;100.00;-20873.53;4973576;28;20475;-72
2021/10/17 08:08:44;;;;;;;0.70;0.60;;;;;;;7.12;100.00;-20876.06;4975055;28;20983;-72
2021/10/17 08:11:16;;;;;;;0.60;0.60;;;;;;;7.04;100.00;-20873.81;4991076;28;20527;-72
2021/10/17 08:13:44;;;;;;;0.70;0.60;;;;;;;7.12;100.00;-20875.91;4975495;28;20471;-72
2021/10/17 08:16:14;;;;;;;0.63;0.57;;;;;;;7.34;100.00;-20882.03;4969960;28;20499;-72
2021/10/17 08:18:52;;;;;;;0.73;0.73;;;;;;;7.53;100.00;-20887.16;4965779;28;20463;-73
2021/10/17 08:21:19;;;;;;;0.80;0.80;;;;;;;7.61;100.00;-20889.38;4991546;28;20432;-73
2021/10/17 08:23:56;;;;;;;1.43;1.33;;;;;;;7.81;100.00;-20894.66;4990924;28;20455;-72
2021/10/17 08:26:24;;;;;;;0.63;0.53;;;;;;;7.99;100.00;-20899.66;4974670;28;20448;-72
2021/10/17 08:28:54;;;;;;;0.70;0.60;;;;;;;8.03;100.00;-20900.63;4974863;28;20447;-72
2021/10/17 08:31:27;;;;;;;0.60;0.60;;;;;;;8.17;100.00;-20904.50;4974768;28;20474;-72
2021/10/17 08:33:55;;;;;;;0.60;0.60;;;;;;;8.40;100.00;-20910.75;4974780;28;20459;-72
2021/10/17 08:36:31;;;;;;;0.70;0.60;;;;;;;8.45;100.00;-20912.13;4975717;28;20459;-73
2021/10/17 08:39:39;;;;;;;0.70;0.60;;;;;;;8.55;100.00;-20914.91;4976012;28;20527;-73
2021/10/17 08:42:06;;;;;;;0.60;0.50;;;;;;;8.64;100.00;-20917.28;4974278;28;20447;-73
2021/10/17 08:44:42;;;;;;;0.70;0.60;;;;;;;8.91;100.00;-20924.75;4959363;28;20832;-73
2021/10/17 08:47:17;;;;;;;0.70;0.70;;;;;;;9.33;100.00;-20935.97;4974644;28;20445;-73
2021/10/17 08:49:45;;;;;;;0.70;0.60;;;;;;;9.38;100.00;-20937.38;4973535;28;20438;-73
2021/10/17 08:52:13;;;;;;;0.70;0.60;;;;;;;9.74;100.00;-20947.19;4974165;28;20436;-73
2021/10/17 08:54:51;;;;;;;0.70;0.60;;;;;;;10.20;100.00;-20959.50;4960008;28;20445;-73
2021/10/17 08:57:19;;;;;;;0.70;0.60;;;;;;;10.93;100.00;-20979.44;4974419;28;20468;-74
2021/10/17 08:59:50;;;;;;;0.80;0.70;;;;;;;12.07;100.00;-21010.25;4973823;28;20446;-73
2021/10/17 09:02:23;;;;;;;0.70;0.70;;;;;;;12.78;100.00;-21029.44;4958427;28;20465;-74
2021/10/17 09:05:00;;;;;;;0.70;0.60;;;;;;;13.37;100.00;-21045.44;4974520;28;20470;-74
2021/10/17 09:07:40;;;;;;;0.70;0.70;;;;;;;14.37;100.00;-21072.44;4959195;28;20868;-74
2021/10/17 09:10:18;;;;;;;0.80;0.80;;;;;;;14.45;100.00;-21074.66;4974492;28;20522;-74
2021/10/17 09:12:47;;;;;;;0.70;0.60;;;;;;;14.39;100.00;-21073.00;4974155;28;20506;-74
2021/10/17 09:15:21;;;;;;;0.80;0.80;;;;;;;14.82;100.00;-21084.41;4975500;28;20887;-74
2021/10/17 09:18:14;;;;;;;0.80;0.73;;;;;;;15.05;100.00;-21090.63;4975005;28;20477;-74
2021/10/17 09:20:55;;;;;;;0.70;0.60;;;;;;;15.12;100.00;-21092.53;4974069;28;20410;-74
2021/10/17 09:23:49;;;;;;;0.70;0.60;;;;;;;15.48;100.00;-21102.16;4973647;28;20456;-74
2021/10/17 09:26:18;;;;;;;0.70;0.60;;;;;;;15.28;100.00;-21096.81;4956585;28;20509;-74
2021/10/17 09:28:45;;;;;;;0.70;0.60;;;;;;;14.67;100.00;-21080.44;4973841;28;20424;-74
2021/10/17 09:31:15;;;;;;;0.70;0.70;;;;;;;15.96;100.00;-21115.22;4972897;28;20394;-74
2021/10/17 09:33:48;;;;;;;0.80;0.60;;;;;;;16.09;100.00;-21118.66;4975066;28;20759;-74
2021/10/17 09:36:21;;;;;;;1.10;1.00;;;;;;;16.35;100.00;-21125.81;4971320;28;20453;-74
2021/10/17 09:39:17;;;;;;;0.70;0.60;;;;;;;17.50;100.00;-21156.69;4955770;28;20977;-74
2021/10/17 09:42:07;;;;;;;0.90;0.70;;;;;;;16.42;100.00;-21127.72;4957222;28;20515;-74
2021/10/17 09:44:47;;;;;;;0.83;0.83;;;;;;;17.11;100.00;-21146.13;4979778;28;20479;-74
2021/10/17 09:47:15;;;;;;;0.80;0.80;;;;;;;16.70;100.00;-21135.13;4973750;28;20471;-74
2021/10/17 09:49:46;;;;;;;0.70;0.60;;;;;;;17.23;100.00;-21149.28;4975161;28;20486;-74
2021/10/17 09:52:19;;;;;;;1.37;1.27;;;;;;;17.76;100.00;-21163.66;4974612;28;20604;-74
2021/10/17 09:54:46;;;;;;;0.80;0.60;;;;;;;17.37;100.00;-21153.09;4974621;28;20424;-74
2021/10/17 09:57:14;;;;;;;0.70;0.50;;;;;;;17.50;100.00;-21156.69;4973754;28;20467;-74
2021/10/17 09:59:41;;;;;;;0.70;0.70;;;;;;;17.24;100.00;-21149.69;4973819;28;20502;-73
2021/10/17 10:02:12;;;;;;;0.80;0.60;;;;;;;17.07;100.00;-21145.16;4989359;28;20432;-74
2021/10/17 10:04:44;;;;;;;0.83;0.60;;;;;;;17.44;100.00;-21155.03;4975015;28;20451;-74
2021/10/17 10:07:16;;;;;;;0.80;0.70;;;;;;;17.53;100.00;-21157.38;4973549;28;20435;-74
2021/10/17 10:09:47;;;;;;;1.40;0.90;;;;;;;17.60;100.00;-21159.28;4972450;28;20434;-74
2021/10/17 10:12:17;;;;;;;0.80;0.70;;;;;;;18.75;100.00;-21190.25;4973981;28;20501;-74
2021/10/17 10:14:45;;;;;;;0.80;0.60;;;;;;;18.29;100.00;-21177.91;4970607;28;20454;-74
2021/10/17 10:17:14;;;;;;;0.80;0.70;;;;;;;17.57;100.00;-21158.47;4973070;28;20960;-74
2021/10/17 10:19:42;;;;;;;0.70;0.60;;;;;;;17.56;100.00;-21158.31;4973290;28;20428;-74
2021/10/17 10:22:12;;;;;;;0.70;0.60;;;;;;;17.08;100.00;-21145.28;4973432;28;20818;-74
2021/10/17 10:24:43;;;;;;;0.70;0.60;;;;;;;17.90;100.00;-21167.25;4975069;28;20924;-74
2021/10/17 10:27:11;;;;;;;0.80;0.60;;;;;;;17.64;100.00;-21160.38;4974299;28;20904;-74
2021/10/17 10:29:38;;;;;;;0.70;0.60;;;;;;;18.16;100.00;-21174.34;4972243;28;20490;-73
2021/10/17 10:32:06;;;;;;;0.83;0.77;;;;;;;17.98;100.00;-21169.44;4974527;28;20412;-73
2021/10/17 10:34:57;;;;;;;1.10;1.00;;;;;;;18.37;100.00;-21179.97;4974599;28;20447;-74
2021/10/17 10:37:27;;;;;;;0.70;0.60;;;;;;;17.53;100.00;-21157.38;4954593;28;20506;-73
2021/10/17 10:40:21;;;;;;;0.70;0.60;;;;;;;17.84;100.00;-21165.88;4973414;28;20478;-74
2021/10/17 10:42:50;;;;;;;1.00;0.90;;;;;;;17.95;100.00;-21168.59;4949186;28;20460;-74
2021/10/17 10:45:24;;;;;;;0.70;0.60;;;;;;;17.97;100.00;-21169.16;4972317;28;20438;-74
2021/10/17 10:48:17;;;;;;;0.80;0.70;;;;;;;18.01;100.00;-21170.38;4974477;28;20495;-74
2021/10/17 10:50:47;;;;;;;0.80;0.80;;;;;;;18.72;100.00;-21189.44;4975869;28;20448;-73
2021/10/17 10:53:48;;;;;;;1.17;1.07;;;;;;;18.31;100.00;-21178.47;4976377;28;20517;-74
2021/10/17 10:56:44;;;;;;;0.90;0.80;;;;;;;17.39;100.00;-21153.78;4976177;28;20514;-74
2021/10/17 10:59:15;;;;;;;2.30;1.10;;;;;;;17.58;100.00;-21158.72;4977803;28;20487;-74
2021/10/17 11:01:58;;;;;;;0.70;0.60;;;;;;;17.58;100.00;-21158.72;4977855;28;20514;-73
2021/10/17 11:05:00;;;;;;;0.80;0.70;;;;;;;17.51;100.00;-21156.94;4976016;28;20487;-74
2021/10/17 11:07:33;;;;;;;0.77;0.60;;;;;;;16.84;100.00;-21138.97;4976514;28;20441;-73
2021/10/17 11:10:39;;;;;;;0.80;0.60;;;;;;;17.00;100.00;-21143.22;4977604;28;20934;-74
2021/10/17 11:13:26;;;;;;;1.10;1.00;;;;;;;16.81;100.00;-21138.03;4977683;28;20402;-73
2021/10/17 11:15:53;;;;;;;0.80;0.70;;;;;;;16.73;100.00;-21135.97;4975953;28;20398;-73
2021/10/17 11:18:30;;;;;;;2.70;0.93;;;;;;;16.85;100.00;-21139.25;4992441;28;20449;-74
2021/10/17 11:21:01;;;;;;;0.80;0.70;;;;;;;17.06;100.00;-21144.75;4976648;28;20474;-74
2021/10/17 11:23:32;;;;;;;0.80;0.70;;;;;;;17.29;100.00;-21151.06;4976799;28;20437;-73
2021/10/17 11:26:00;;;;;;;0.80;0.70;;;;;;;17.62;100.00;-21159.97;4976105;28;20448;-74
2021/10/17 11:28:31;;;;;;;0.80;0.80;;;;;;;17.49;100.00;-21156.25;4976182;28;20499;-74
2021/10/17 11:31:06;;;;;;;0.80;0.73;;;;;;;17.09;100.00;-21145.72;4992055;28;20955;-73
2021/10/17 11:33:33;;;;;;;0.80;0.80;;;;;;;17.26;100.00;-21150.22;4975982;28;20443;-73
2021/10/17 11:36:00;;;;;;;2.13;1.10;;;;;;;17.35;100.00;-21152.56;4992247;28;20482;-73
2021/10/17 11:38:27;;;;;;;0.70;0.60;;;;;;;17.36;100.00;-21152.97;4976809;28;20459;-73
2021/10/17 11:41:06;;;;;;;0.80;0.70;;;;;;;17.61;100.00;-21159.56;4975946;28;20479;-73
2021/10/17 11:43:42;;;;;;;0.70;0.60;;;;;;;17.53;100.00;-21157.38;4974582;28;20895;-73